Time;durP1;ratioP1;P1;durP2;ratioP2;P2;SDS_P1;SDS_P2;PMS_P1;PMS_P2;Temp;Humidity;BMP_temperature;BMP_pressure;BME280_temperature;BME280_humidity;BME280_pressure;Samples;Min_cycle;Max_cycle;Signal;HPM_P1;HPM_P2
2021/10/26 00:01:09;;;;;;;2.17;2.00;;;;;;;;;;5015690;28;20243;-65
2021/10/26 00:03:38;;;;;;;2.13;1.97;;;;;;;;;;5038724;28;20256;-65
2021/10/26 00:06:11;;;;;;;2.50;2.30;;;;;;;;;;5028117;28;20194;-65
2021/10/26 00:08:43;;;;;;;2.23;2.03;;;;;;;;;;5041763;28;20221;-65
2021/10/26 00:11:21;;;;;;;1.67;1.57;;;;;;;;;;5047268;28;20354;-65
2021/10/26 00:13:50;;;;;;;2.47;2.10;;;;;;;;;;5045287;28;20225;-64
2021/10/26 00:16:21;;;;;;;2.23;2.07;;;;;;;;;;5047181;28;20197;-65
2021/10/26 00:18:53;;;;;;;2.27;2.07;;;;;;;;;;5025763;28;20221;-65
2021/10/26 00:21:27;;;;;;;2.00;1.73;;;;;;;;;;5038331;28;20340;-65
2021/10/26 00:24:06;;;;;;;2.57;2.37;;;;;;;;;;5039854;28;20302;-65
2021/10/26 00:26:50;;;;;;;2.20;2.00;;;;;;;;;;5048941;28;20240;-65
2021/10/26 00:29:22;;;;;;;2.07;1.87;;;;;;;;;;5040699;28;20211;-65
2021/10/26 00:31:53;;;;;;;1.97;1.83;;;;;;;;;;5023070;28;20563;-65
2021/10/26 00:34:25;;;;;;;2.67;2.47;;;;;;;;;;5037971;28;20219;-65
2021/10/26 00:36:58;;;;;;;1.87;1.77;;;;;;;;;;5042536;28;20201;-65
2021/10/26 00:39:29;;;;;;;2.70;2.50;;;;;;;;;;5041818;28;20206;-65
2021/10/26 00:41:59;;;;;;;2.10;1.90;;;;;;;;;;5049399;28;20210;-64
2021/10/26 00:44:30;;;;;;;2.10;1.90;;;;;;;;;;5014507;28;20207;-64
2021/10/26 00:47:19;;;;;;;2.13;1.93;;;;;;;;;;5025396;28;20206;-64
2021/10/26 00:49:50;;;;;;;2.67;2.47;;;;;;;;;;5042207;28;20209;-64
2021/10/26 00:52:22;;;;;;;2.00;1.90;;;;;;;;;;5045772;28;20604;-64
2021/10/26 00:54:55;;;;;;;2.50;2.20;;;;;;;;;;5049872;28;20197;-64
2021/10/26 00:57:28;;;;;;;2.33;2.13;;;;;;;;;;5043751;28;20264;-64
2021/10/26 00:59:57;;;;;;;2.03;1.83;;;;;;;;;;5052078;28;20221;-64
2021/10/26 01:02:27;;;;;;;2.10;2.00;;;;;;;;;;5044309;28;20202;-64
2021/10/26 01:05:00;;;;;;;2.50;2.30;;;;;;;;;;5036613;28;20520;-64
2021/10/26 01:07:35;;;;;;;2.17;1.90;;;;;;;;;;5040112;28;20230;-64
2021/10/26 01:10:08;;;;;;;2.27;2.07;;;;;;;;;;5051468;28;20273;-66
2021/10/26 01:12:40;;;;;;;2.40;2.20;;;;;;;;;;5046559;28;20289;-66
2021/10/26 01:15:12;;;;;;;2.17;1.97;;;;;;;;;;5051566;28;20202;-66
2021/10/26 01:17:44;;;;;;;2.53;2.10;;;;;;;;;;5044525;28;20190;-66
2021/10/26 01:20:15;;;;;;;2.27;2.10;;;;;;;;;;5049416;28;20233;-66
2021/10/26 01:22:46;;;;;;;2.13;2.03;;;;;;;;;;5050339;28;20206;-66
2021/10/26 01:25:15;;;;;;;2.63;2.43;;;;;;;;;;5049448;28;20209;-67
2021/10/26 01:27:54;;;;;;;2.10;2.00;;;;;;;;;;5046786;28;20702;-66
2021/10/26 01:30:28;;;;;;;1.93;1.73;;;;;;;;;;5049488;28;20264;-66
2021/10/26 01:33:01;;;;;;;2.00;1.83;;;;;;;;;;5017212;28;20243;-66
2021/10/26 01:35:41;;;;;;;2.53;2.10;;;;;;;;;;5027128;28;20202;-66
2021/10/26 01:38:11;;;;;;;1.90;1.80;;;;;;;;;;5046893;28;20205;-66
2021/10/26 01:40:43;;;;;;;3.10;1.93;;;;;;;;;;5032048;28;20285;-66
2021/10/26 01:43:15;;;;;;;2.37;2.17;;;;;;;;;;5033629;28;20209;-66
2021/10/26 01:45:51;;;;;;;2.40;2.20;;;;;;;;;;5024965;28;20245;-65
2021/10/26 01:48:21;;;;;;;2.37;2.17;;;;;;;;;;5049964;28;20213;-65
2021/10/26 01:50:53;;;;;;;1.93;1.83;;;;;;;;;;5047870;28;20207;-65
2021/10/26 01:53:23;;;;;;;2.27;2.07;;;;;;;;;;5059214;28;20215;-65
2021/10/26 01:55:57;;;;;;;2.00;1.90;;;;;;;;;;5044315;28;20214;-65
2021/10/26 01:58:28;;;;;;;2.10;2.00;;;;;;;;;;5080447;28;20198;-65
2021/10/26 02:00:58;;;;;;;2.00;1.80;;;;;;;;;;5037834;28;20214;-65
2021/10/26 02:03:30;;;;;;;2.73;2.53;;;;;;;;;;5067914;28;20214;-65
2021/10/26 02:06:01;;;;;;;1.80;1.70;;;;;;;;;;5055027;28;20194;-65
2021/10/26 02:08:33;;;;;;;2.20;2.00;;;;;;;;;;5049701;28;20215;-65
2021/10/26 02:11:02;;;;;;;1.70;1.60;;;;;;;;;;5047736;28;20216;-65
2021/10/26 02:13:36;;;;;;;2.43;2.17;;;;;;;;;;5043698;28;20202;-65
2021/10/26 02:16:10;;;;;;;2.30;2.10;;;;;;;;;;5048882;28;20240;-65
2021/10/26 02:18:42;;;;;;;2.07;1.90;;;;;;;;;;5048918;28;20612;-65
2021/10/26 02:21:14;;;;;;;2.43;2.17;;;;;;;;;;5031596;28;20294;-67
2021/10/26 02:24:00;;;;;;;2.17;1.97;;;;;;;;;;5023246;28;20290;-66
2021/10/26 02:26:32;;;;;;;2.87;2.37;;;;;;;;;;5011601;28;20219;-67
2021/10/26 02:29:04;;;;;;;2.07;1.87;;;;;;;;;;5026149;28;20203;-67
2021/10/26 02:31:37;;;;;;;2.57;2.37;;;;;;;;;;5024379;28;20678;-67
2021/10/26 02:34:08;;;;;;;1.87;1.77;;;;;;;;;;5025926;28;20281;-67
2021/10/26 02:36:40;;;;;;;2.50;1.97;;;;;;;;;;5012162;28;20263;-66
2021/10/26 02:39:12;;;;;;;2.20;2.00;;;;;;;;;;5025454;28;20203;-66
2021/10/26 02:41:43;;;;;;;2.20;1.90;;;;;;;;;;5009713;28;20215;-67
2021/10/26 02:44:17;;;;;;;1.80;1.60;;;;;;;;;;5024236;28;20207;-67
2021/10/26 02:46:47;;;;;;;2.30;1.90;;;;;;;;;;5029295;28;20543;-67
2021/10/26 02:49:18;;;;;;;2.47;2.03;;;;;;;;;;5026709;28;20234;-67
2021/10/26 02:51:49;;;;;;;2.87;2.27;;;;;;;;;;5007921;28;20211;-67
2021/10/26 02:54:22;;;;;;;2.30;1.80;;;;;;;;;;5026397;28;20604;-67
2021/10/26 02:56:53;;;;;;;2.30;2.10;;;;;;;;;;5024328;28;20211;-66
2021/10/26 02:59:24;;;;;;;2.20;2.00;;;;;;;;;;5027743;28;20202;-67
2021/10/26 03:01:55;;;;;;;2.13;1.80;;;;;;;;;;5030236;28;20253;-67
2021/10/26 03:04:26;;;;;;;2.33;2.13;;;;;;;;;;5026922;28;20207;-67
2021/10/26 03:06:57;;;;;;;2.00;1.80;;;;;;;;;;5022803;28;20199;-66
2021/10/26 03:09:27;;;;;;;2.00;1.80;;;;;;;;;;5011348;28;20242;-66
2021/10/26 03:11:59;;;;;;;1.90;1.80;;;;;;;;;;5028135;28;20633;-66
2021/10/26 03:14:31;;;;;;;2.80;1.90;;;;;;;;;;5022055;28;20223;-67
2021/10/26 03:17:05;;;;;;;2.40;2.17;;;;;;;;;;5027007;28;20205;-67
2021/10/26 03:19:35;;;;;;;1.60;1.50;;;;;;;;;;5023821;28;20716;-66
2021/10/26 03:22:07;;;;;;;2.20;1.93;;;;;;;;;;5015597;28;20222;-66
2021/10/26 03:24:50;;;;;;;1.93;1.83;;;;;;;;;;5008979;28;20694;-66
2021/10/26 03:27:21;;;;;;;2.93;1.90;;;;;;;;;;5028340;28;20234;-67
2021/10/26 03:29:55;;;;;;;2.47;2.00;;;;;;;;;;5009659;28;20230;-67
2021/10/26 03:32:37;;;;;;;1.67;1.57;;;;;;;;;;5023514;28;20214;-67
2021/10/26 03:35:10;;;;;;;2.10;1.90;;;;;;;;;;5028995;28;20215;-66
2021/10/26 03:37:41;;;;;;;2.17;1.80;;;;;;;;;;5007748;28;20210;-67
2021/10/26 03:40:42;;;;;;;2.10;1.90;;;;;;;;;;5018566;28;20230;-66
2021/10/26 03:43:14;;;;;;;2.10;1.90;;;;;;;;;;5026514;28;20305;-67
2021/10/26 03:45:43;;;;;;;1.93;1.73;;;;;;;;;;5007277;28;20208;-66
2021/10/26 03:48:13;;;;;;;1.83;1.73;;;;;;;;;;5038688;28;20195;-66
2021/10/26 03:50:45;;;;;;;2.20;2.00;;;;;;;;;;5036555;28;20206;-66
2021/10/26 03:53:32;;;;;;;2.57;2.37;;;;;;;;;;5025117;28;20229;-66
2021/10/26 03:56:03;;;;;;;2.70;1.93;;;;;;;;;;5027146;28;20309;-67
2021/10/26 03:58:34;;;;;;;2.13;1.93;;;;;;;;;;5028711;28;20198;-67
2021/10/26 04:01:06;;;;;;;2.10;1.90;;;;;;;;;;5010128;28;20207;-67
2021/10/26 04:03:36;;;;;;;1.93;1.80;;;;;;;;;;5026184;28;20261;-67
2021/10/26 04:06:12;;;;;;;2.20;1.93;;;;;;;;;;5026936;28;20207;-67
2021/10/26 04:09:02;;;;;;;2.20;2.00;;;;;;;;;;5017042;28;20214;-66
2021/10/26 04:11:39;;;;;;;2.40;2.20;;;;;;;;;;5025392;28;20198;-66
2021/10/26 04:14:09;;;;;;;2.10;1.90;;;;;;;;;;5031249;28;20229;-67
2021/10/26 04:16:40;;;;;;;2.00;1.80;;;;;;;;;;5025637;28;20203;-67
2021/10/26 04:19:12;;;;;;;2.60;2.40;;;;;;;;;;5030652;28;20736;-67
2021/10/26 04:21:43;;;;;;;2.20;2.00;;;;;;;;;;5024742;28;20227;-67
2021/10/26 04:24:14;;;;;;;2.30;2.10;;;;;;;;;;5026719;28;20255;-66
2021/10/26 04:26:49;;;;;;;2.57;2.37;;;;;;;;;;5030978;28;20207;-66
2021/10/26 04:29:19;;;;;;;2.40;2.20;;;;;;;;;;5029981;28;20221;-67
2021/10/26 04:31:51;;;;;;;2.87;2.37;;;;;;;;;;5028048;28;20224;-67
2021/10/26 04:34:25;;;;;;;2.40;2.20;;;;;;;;;;5032442;28;20231;-67
2021/10/26 04:36:55;;;;;;;2.37;2.17;;;;;;;;;;5033447;28;20613;-67
2021/10/26 04:39:29;;;;;;;2.73;2.47;;;;;;;;;;5027353;28;20273;-66
2021/10/26 04:42:04;;;;;;;3.20;2.60;;;;;;;;;;5031786;28;20199;-67
2021/10/26 04:44:36;;;;;;;3.37;2.53;;;;;;;;;;5030349;28;20219;-66
2021/10/26 04:47:07;;;;;;;3.37;2.30;;;;;;;;;;5031775;28;20199;-67
2021/10/26 04:49:41;;;;;;;2.70;2.50;;;;;;;;;;5010693;28;20214;-67
2021/10/26 04:52:15;;;;;;;2.40;2.20;;;;;;;;;;5015063;28;20199;-66
2021/10/26 04:54:45;;;;;;;2.70;2.43;;;;;;;;;;5030437;28;20211;-66
2021/10/26 04:57:16;;;;;;;2.87;2.57;;;;;;;;;;5029961;28;20207;-66
2021/10/26 04:59:46;;;;;;;2.77;2.57;;;;;;;;;;5027520;28;20206;-67
2021/10/26 05:02:21;;;;;;;2.40;2.20;;;;;;;;;;5037161;28;20315;-67
2021/10/26 05:04:52;;;;;;;3.07;2.37;;;;;;;;;;5013768;28;20203;-67
2021/10/26 05:07:25;;;;;;;3.43;2.50;;;;;;;;;;5032161;28;20258;-67
2021/10/26 05:09:56;;;;;;;2.90;2.60;;;;;;;;;;5026364;28;20223;-67
2021/10/26 05:12:26;;;;;;;3.07;2.43;;;;;;;;;;5032387;28;20211;-67
2021/10/26 05:14:58;;;;;;;2.50;2.30;;;;;;;;;;5032619;28;20215;-67
2021/10/26 05:17:31;;;;;;;2.73;2.20;;;;;;;;;;5027937;28;20207;-67
2021/10/26 05:20:05;;;;;;;2.80;2.40;;;;;;;;;;5032311;28;20714;-66
2021/10/26 05:22:38;;;;;;;3.23;2.53;;;;;;;;;;5048922;28;20206;-66
2021/10/26 05:25:11;;;;;;;3.00;2.50;;;;;;;;;;5033813;28;20207;-67
2021/10/26 05:27:44;;;;;;;2.40;2.20;;;;;;;;;;5043410;28;20615;-67
2021/10/26 05:30:16;;;;;;;2.87;2.43;;;;;;;;;;5048070;28;20637;-67
2021/10/26 05:32:46;;;;;;;3.30;3.00;;;;;;;;;;5029200;28;20245;-66
2021/10/26 05:35:16;;;;;;;2.70;2.50;;;;;;;;;;5050845;28;20238;-66
2021/10/26 05:37:48;;;;;;;2.90;2.30;;;;;;;;;;5043370;28;20211;-66
2021/10/26 05:40:23;;;;;;;3.53;2.97;;;;;;;;;;5050338;28;20203;-67
2021/10/26 05:42:54;;;;;;;3.10;2.77;;;;;;;;;;5048489;28;20205;-66
2021/10/26 05:45:44;;;;;;;3.07;2.50;;;;;;;;;;5046205;28;20206;-66
2021/10/26 05:48:14;;;;;;;3.23;2.97;;;;;;;;;;5048672;28;20272;-67
2021/10/26 05:50:50;;;;;;;3.13;2.83;;;;;;;;;;5051576;28;20198;-67
2021/10/26 05:53:21;;;;;;;3.30;3.00;;;;;;;;;;5045081;28;20210;-66
2021/10/26 05:55:49;;;;;;;3.10;2.80;;;;;;;;;;5035968;28;20237;-67
2021/10/26 05:58:19;;;;;;;3.07;2.47;;;;;;;;;;5046759;28;20190;-66
2021/10/26 06:00:47;;;;;;;3.00;2.70;;;;;;;;;;5046844;28;20209;-66
2021/10/26 06:03:18;;;;;;;4.03;3.17;;;;;;;;;;5048336;28;20214;-66
2021/10/26 06:05:49;;;;;;;3.30;2.80;;;;;;;;;;5047273;28;20532;-67
2021/10/26 06:08:24;;;;;;;3.10;2.80;;;;;;;;;;5027336;28;20214;-66
2021/10/26 06:11:13;;;;;;;3.10;2.80;;;;;;;;;;5057712;28;20207;-66
2021/10/26 06:13:49;;;;;;;3.93;3.10;;;;;;;;;;5029995;28;20209;-64
2021/10/26 06:16:22;;;;;;;3.00;2.70;;;;;;;;;;5058964;28;20183;-67
2021/10/26 06:18:53;;;;;;;2.90;2.70;;;;;;;;;;5049343;28;20628;-67
2021/10/26 06:21:27;;;;;;;3.07;2.77;;;;;;;;;;5052270;28;20304;-66
2021/10/26 06:24:09;;;;;;;4.10;3.20;;;;;;;;;;5051209;28;20221;-66
2021/10/26 06:26:46;;;;;;;3.60;3.13;;;;;;;;;;5054521;28;20202;-65
2021/10/26 06:29:19;;;;;;;3.40;3.07;;;;;;;;;;5050008;28;20206;-65
2021/10/26 06:31:50;;;;;;;4.17;2.83;;;;;;;;;;5050070;28;20550;-64
2021/10/26 06:34:22;;;;;;;4.23;2.73;;;;;;;;;;5032390;28;20629;-65
2021/10/26 06:37:07;;;;;;;4.37;3.17;;;;;;;;;;5055750;28;20198;-65
2021/10/26 06:39:37;;;;;;;4.57;3.23;;;;;;;;;;5044605;28;20187;-65
2021/10/26 06:42:10;;;;;;;4.47;4.07;;;;;;;;;;5057623;28;20206;-64
2021/10/26 06:44:42;;;;;;;3.50;3.03;;;;;;;;;;5047073;28;20218;-64
2021/10/26 06:47:14;;;;;;;4.13;3.27;;;;;;;;;;5057334;28;20205;-64
2021/10/26 06:49:57;;;;;;;4.00;3.60;;;;;;;;;;5043066;28;20209;-64
2021/10/26 06:52:29;;;;;;;4.20;3.50;;;;;;;;;;5046328;28;20218;-66
2021/10/26 06:54:58;;;;;;;4.20;3.80;;;;;;;;;;5044376;28;20241;-65
2021/10/26 06:57:29;;;;;;;4.10;3.63;;;;;;;;;;5043350;28;20567;-66
2021/10/26 07:00:03;;;;;;;4.60;3.83;;;;;;;;;;5044584;28;20743;-66
2021/10/26 07:02:45;;;;;;;4.63;3.80;;;;;;;;;;5031454;28;20186;-67
2021/10/26 07:05:25;;;;;;;4.20;3.47;;;;;;;;;;5044163;28;20268;-67
2021/10/26 07:07:54;;;;;;;3.53;3.23;;;;;;;;;;5030878;28;20217;-66
2021/10/26 07:10:27;;;;;;;5.00;3.40;;;;;;;;;;5044102;28;20260;-64
2021/10/26 07:13:00;;;;;;;5.00;3.50;;;;;;;;;;5030381;28;20248;-64
2021/10/26 07:15:33;;;;;;;3.77;3.37;;;;;;;;;;5040184;28;20213;-66
2021/10/26 07:18:06;;;;;;;4.30;3.77;;;;;;;;;;5045002;28;20250;-67
2021/10/26 07:20:34;;;;;;;4.20;3.80;;;;;;;;;;5043951;28;20236;-66
2021/10/26 07:23:11;;;;;;;4.90;4.40;;;;;;;;;;5047277;28;20197;-66
2021/10/26 07:25:44;;;;;;;4.30;3.80;;;;;;;;;;5045120;28;22108;-65
2021/10/26 07:28:15;;;;;;;4.60;4.20;;;;;;;;;;5041326;28;20194;-64
2021/10/26 07:30:46;;;;;;;4.70;4.20;;;;;;;;;;5041221;28;20210;-66
2021/10/26 07:33:22;;;;;;;5.13;4.33;;;;;;;;;;5040191;28;20647;-66
2021/10/26 07:35:56;;;;;;;4.87;4.20;;;;;;;;;;5043185;28;20556;-65
2021/10/26 07:38:31;;;;;;;5.43;4.70;;;;;;;;;;5026296;28;20205;-65
2021/10/26 07:41:03;;;;;;;4.53;4.10;;;;;;;;;;5056548;28;20209;-66
2021/10/26 07:43:36;;;;;;;5.13;4.10;;;;;;;;;;5040527;28;20194;-66
2021/10/26 07:46:10;;;;;;;4.20;3.77;;;;;;;;;;5023619;28;20260;-66
2021/10/26 07:48:40;;;;;;;5.73;4.43;;;;;;;;;;5025611;28;20207;-66
2021/10/26 07:51:10;;;;;;;5.60;4.67;;;;;;;;;;5029804;28;20727;-66
2021/10/26 07:53:40;;;;;;;5.83;4.50;;;;;;;;;;5041414;28;20215;-67
2021/10/26 07:56:12;;;;;;;6.57;4.43;;;;;;;;;;5029741;28;20238;-67
2021/10/26 07:58:43;;;;;;;4.87;4.37;;;;;;;;;;5043495;28;20203;-66
2021/10/26 08:01:15;;;;;;;5.83;4.60;;;;;;;;;;5048957;28;20646;-67
2021/10/26 08:03:46;;;;;;;5.23;4.27;;;;;;;;;;5040105;28;20316;-67
2021/10/26 08:06:18;;;;;;;5.37;4.73;;;;;;;;;;5053385;28;20190;-67
2021/10/26 08:08:52;;;;;;;5.70;4.73;;;;;;;;;;5040940;28;20203;-67
2021/10/26 08:11:29;;;;;;;4.73;4.33;;;;;;;;;;5037539;28;20198;-65
2021/10/26 08:14:02;;;;;;;4.97;4.47;;;;;;;;;;5058392;28;20201;-65
2021/10/26 08:16:33;;;;;;;6.07;4.90;;;;;;;;;;5052445;28;20651;-66
2021/10/26 08:19:06;;;;;;;6.10;4.57;;;;;;;;;;5059430;28;20210;-67
2021/10/26 08:21:39;;;;;;;5.40;4.83;;;;;;;;;;5053420;28;20324;-65
2021/10/26 08:24:21;;;;;;;6.80;5.37;;;;;;;;;;5059924;28;20275;-65
2021/10/26 08:27:00;;;;;;;5.93;5.03;;;;;;;;;;5061006;28;20228;-66
2021/10/26 08:35:29;;;;;;;5.80;4.77;;;;;;;;;;5071881;28;20228;-66
2021/10/26 08:38:05;;;;;;;5.03;4.57;;;;;;;;;;5057752;28;20198;-66
2021/10/26 08:40:37;;;;;;;6.03;5.20;;;;;;;;;;5068138;28;20242;-66
2021/10/26 08:43:11;;;;;;;5.53;4.70;;;;;;;;;;5046385;28;20264;-67
2021/10/26 08:45:47;;;;;;;6.73;5.07;;;;;;;;;;5043851;28;20231;-64
2021/10/26 08:48:27;;;;;;;6.53;5.47;;;;;;;;;;5058555;28;20224;-65
2021/10/26 08:51:04;;;;;;;6.63;4.77;;;;;;;;;;5057028;28;20197;-67
2021/10/26 08:53:35;;;;;;;5.77;5.07;;;;;;;;;;5054574;28;20181;-67
2021/10/26 08:56:08;;;;;;;5.77;4.63;;;;;;;;;;5061760;28;20321;-66
2021/10/26 08:58:44;;;;;;;5.77;5.20;;;;;;;;;;5033942;28;20197;-66
2021/10/26 09:01:19;;;;;;;6.10;4.37;;;;;;;;;;5058590;28;20216;-66
2021/10/26 09:04:08;;;;;;;5.63;4.50;;;;;;;;;;5051670;28;20202;-66
2021/10/26 09:06:45;;;;;;;6.33;5.13;;;;;;;;;;5058629;28;20197;-65
2021/10/26 09:09:19;;;;;;;6.43;4.77;;;;;;;;;;5041091;28;20214;-65
2021/10/26 09:17:48;;;;;;;5.57;4.30;;;;;;;;;;5048566;28;20198;-64
2021/10/26 09:20:27;;;;;;;7.03;4.37;;;;;;;;;;5060941;28;20240;-66
2021/10/26 09:22:59;;;;;;;5.07;4.43;;;;;;;;;;5027385;28;20185;-66
2021/10/26 09:25:52;;;;;;;5.50;4.13;;;;;;;;;;5028980;28;20529;-65
2021/10/26 09:28:35;;;;;;;6.47;5.07;;;;;;;;;;5050920;28;20264;-64
2021/10/26 09:31:09;;;;;;;6.33;4.60;;;;;;;;;;5044916;28;20202;-66
2021/10/26 09:33:39;;;;;;;4.90;4.40;;;;;;;;;;5009636;28;20574;-66
2021/10/26 09:36:28;;;;;;;4.90;4.23;;;;;;;;;;5027970;28;20238;-66
2021/10/26 09:39:15;;;;;;;5.97;4.37;;;;;;;;;;5034070;28;20274;-66
2021/10/26 09:41:53;;;;;;;5.67;4.40;;;;;;;;;;5034193;28;20198;-64
2021/10/26 09:44:28;;;;;;;5.03;4.27;;;;;;;;;;5034053;28;20524;-64
2021/10/26 09:47:18;;;;;;;6.13;4.60;;;;;;;;;;5019308;28;20198;-67
2021/10/26 09:49:56;;;;;;;6.47;4.57;;;;;;;;;;5040984;28;20198;-66
2021/10/26 09:52:26;;;;;;;4.67;4.23;;;;;;;;;;5028545;28;20198;-64
2021/10/26 09:55:20;;;;;;;5.03;4.07;;;;;;;;;;5043197;28;20223;-66
2021/10/26 09:57:50;;;;;;;5.83;4.97;;;;;;;;;;5041992;28;20198;-67
2021/10/26 10:00:39;;;;;;;4.80;4.10;;;;;;;;;;5041598;28;20205;-65
2021/10/26 10:03:17;;;;;;;5.03;4.47;;;;;;;;;;5034354;28;20201;-65
2021/10/26 10:06:13;;;;;;;5.17;3.90;;;;;;;;;;5041773;28;20540;-65
2021/10/26 10:08:46;;;;;;;5.00;4.50;;;;;;;;;;5044700;28;20224;-65
2021/10/26 10:11:20;;;;;;;5.67;3.97;;;;;;;;;;5042252;28;20217;-66
2021/10/26 10:13:58;;;;;;;5.60;4.60;;;;;;;;;;5023500;28;20206;-66
2021/10/26 10:16:40;;;;;;;5.60;4.23;;;;;;;;;;5044898;28;20312;-65
2021/10/26 10:19:08;;;;;;;4.87;4.30;;;;;;;;;;5042581;28;20209;-65
2021/10/26 10:21:37;;;;;;;5.37;4.60;;;;;;;;;;5057899;28;20226;-67
2021/10/26 10:24:28;;;;;;;5.17;4.63;;;;;;;;;;5060887;28;20285;-65
2021/10/26 10:27:00;;;;;;;4.97;4.03;;;;;;;;;;5049802;28;20198;-65
2021/10/26 10:29:29;;;;;;;5.97;4.40;;;;;;;;;;5055857;28;20668;-65
2021/10/26 10:32:01;;;;;;;5.47;4.17;;;;;;;;;;5065448;28;20333;-66
2021/10/26 10:34:32;;;;;;;5.10;4.27;;;;;;;;;;5058482;28;20695;-66
2021/10/26 10:37:04;;;;;;;4.63;3.87;;;;;;;;;;5050579;28;20224;-67
2021/10/26 10:39:49;;;;;;;6.17;4.33;;;;;;;;;;5050856;28;20202;-67
2021/10/26 10:42:25;;;;;;;4.90;3.83;;;;;;;;;;5055495;28;20198;-65
2021/10/26 10:45:24;;;;;;;4.50;3.77;;;;;;;;;;5043049;28;20209;-65
2021/10/26 10:47:58;;;;;;;5.37;4.27;;;;;;;;;;5060498;28;20206;-65
2021/10/26 10:50:35;;;;;;;4.83;3.67;;;;;;;;;;5053789;28;20656;-65
2021/10/26 10:53:14;;;;;;;4.77;3.90;;;;;;;;;;5061882;28;20190;-65
2021/10/26 10:55:53;;;;;;;5.37;4.40;;;;;;;;;;5065396;28;26251;-64
2021/10/26 10:58:32;;;;;;;4.43;4.00;;;;;;;;;;5043103;28;20633;-64
2021/10/26 11:01:21;;;;;;;5.00;3.87;;;;;;;;;;5053579;28;20600;-65
2021/10/26 11:03:57;;;;;;;4.30;3.70;;;;;;;;;;5055845;28;20194;-65
2021/10/26 11:06:43;;;;;;;5.90;4.50;;;;;;;;;;5039115;28;21051;-64
2021/10/26 11:09:31;;;;;;;4.87;3.73;;;;;;;;;;5063857;28;20689;-65
2021/10/26 11:12:22;;;;;;;4.53;3.73;;;;;;;;;;5066090;28;20390;-65
2021/10/26 11:15:00;;;;;;;4.00;3.40;;;;;;;;;;5067064;28;20223;-64
2021/10/26 11:17:40;;;;;;;4.23;3.80;;;;;;;;;;5059194;28;20212;-66
2021/10/26 11:20:36;;;;;;;4.70;3.50;;;;;;;;;;5049874;28;20237;-65
2021/10/26 11:23:32;;;;;;;6.33;3.83;;;;;;;;;;5038100;28;20261;-65
2021/10/26 11:26:04;;;;;;;2.97;2.67;;;;;;;;;;5046279;28;20859;-67
2021/10/26 11:28:41;;;;;;;3.87;3.27;;;;;;;;;;5035752;28;20210;-67
2021/10/26 11:31:16;;;;;;;4.97;3.37;;;;;;;;;;5047217;28;20205;-66
2021/10/26 11:33:57;;;;;;;4.77;3.80;;;;;;;;;;5023561;28;20198;-66
2021/10/26 11:36:32;;;;;;;3.50;3.20;;;;;;;;;;5038681;28;20222;-65
2021/10/26 11:39:08;;;;;;;4.07;3.57;;;;;;;;;;5033508;28;20203;-65
2021/10/26 11:41:40;;;;;;;5.00;3.67;;;;;;;;;;5022215;28;20213;-64
2021/10/26 11:44:17;;;;;;;4.93;3.30;;;;;;;;;;5045120;28;20218;-64
2021/10/26 11:46:54;;;;;;;3.20;2.90;;;;;;;;;;5038532;28;20206;-64
2021/10/26 11:49:35;;;;;;;4.13;2.80;;;;;;;;;;5031601;28;20202;-64
2021/10/26 11:52:11;;;;;;;4.47;3.23;;;;;;;;;;5022803;28;20202;-64
2021/10/26 11:54:52;;;;;;;6.13;3.80;;;;;;;;;;5033564;28;20210;-65
2021/10/26 11:57:23;;;;;;;3.87;2.73;;;;;;;;;;5031451;28;20227;-66
2021/10/26 12:00:02;;;;;;;3.57;3.00;;;;;;;;;;5032186;28;20199;-66
2021/10/26 12:02:34;;;;;;;2.93;2.43;;;;;;;;;;5041449;28;20198;-65
2021/10/26 12:05:22;;;;;;;3.60;2.63;;;;;;;;;;5029419;28;20318;-66
2021/10/26 12:07:53;;;;;;;4.70;3.13;;;;;;;;;;5039838;28;20560;-66
2021/10/26 12:10:25;;;;;;;3.57;2.73;;;;;;;;;;5027001;28;20195;-66
2021/10/26 12:13:07;;;;;;;4.03;2.97;;;;;;;;;;5046052;28;20225;-66
2021/10/26 12:15:39;;;;;;;3.17;2.20;;;;;;;;;;5037902;28;20214;-64
2021/10/26 12:18:11;;;;;;;3.47;2.70;;;;;;;;;;5030581;28;20270;-64
2021/10/26 12:20:44;;;;;;;3.63;2.40;;;;;;;;;;5045937;28;20742;-64
2021/10/26 12:23:14;;;;;;;3.43;2.63;;;;;;;;;;5067008;28;20229;-64
2021/10/26 12:25:48;;;;;;;4.00;2.20;;;;;;;;;;5054828;28;20195;-66
2021/10/26 12:28:19;;;;;;;5.30;2.33;;;;;;;;;;5065897;28;20213;-66
2021/10/26 12:30:51;;;;;;;4.13;2.67;;;;;;;;;;5056020;28;20191;-64
2021/10/26 12:33:27;;;;;;;3.77;2.80;;;;;;;;;;5060651;28;20660;-64
2021/10/26 12:36:05;;;;;;;4.03;2.60;;;;;;;;;;5036117;28;20210;-64
2021/10/26 12:38:38;;;;;;;2.73;2.10;;;;;;;;;;5036235;28;20593;-64
2021/10/26 12:41:18;;;;;;;3.00;2.20;;;;;;;;;;5061128;28;20194;-65
2021/10/26 12:43:59;;;;;;;3.23;2.13;;;;;;;;;;5057426;28;20732;-64
2021/10/26 12:46:40;;;;;;;6.60;2.50;;;;;;;;;;5060195;28;20550;-64
2021/10/26 12:49:16;;;;;;;3.67;2.30;;;;;;;;;;5063883;28;20546;-64
2021/10/26 12:51:47;;;;;;;3.10;2.50;;;;;;;;;;5049675;28;20217;-65
2021/10/26 12:54:22;;;;;;;4.13;2.13;;;;;;;;;;5063849;28;20202;-65
2021/10/26 12:57:00;;;;;;;3.47;2.10;;;;;;;;;;5033958;28;20237;-65
2021/10/26 12:59:38;;;;;;;3.27;2.00;;;;;;;;;;5046800;28;20437;-65
2021/10/26 13:02:07;;;;;;;3.13;2.27;;;;;;;;;;5053617;28;20621;-65
2021/10/26 13:04:41;;;;;;;2.83;2.47;;;;;;;;;;5060402;28;20202;-65
2021/10/26 13:07:26;;;;;;;2.60;2.30;;;;;;;;;;5057691;28;20213;-66
2021/10/26 13:09:56;;;;;;;3.03;2.00;;;;;;;;;;5053348;28;20512;-66
2021/10/26 13:12:33;;;;;;;3.80;2.40;;;;;;;;;;5050204;28;20205;-64
2021/10/26 13:15:12;;;;;;;4.30;2.00;;;;;;;;;;5065277;28;20293;-64
2021/10/26 13:17:49;;;;;;;2.47;1.70;;;;;;;;;;5065605;28;20425;-66
2021/10/26 13:20:45;;;;;;;2.57;1.83;;;;;;;;;;5058011;28;20229;-66
2021/10/26 13:23:26;;;;;;;2.17;1.90;;;;;;;;;;5041303;28;20242;-66
2021/10/26 13:26:02;;;;;;;4.50;2.00;;;;;;;;;;5032788;28;20214;-66
2021/10/26 13:28:39;;;;;;;5.90;2.37;;;;;;;;;;5039963;28;20206;-66
2021/10/26 13:31:12;;;;;;;4.40;2.70;;;;;;;;;;5045382;28;20221;-66
2021/10/26 13:33:43;;;;;;;3.30;1.87;;;;;;;;;;5036061;28;20357;-66
2021/10/26 13:36:19;;;;;;;3.83;2.00;;;;;;;;;;5048110;28;20684;-67
2021/10/26 13:38:50;;;;;;;3.03;2.10;;;;;;;;;;5040960;28;20194;-66
2021/10/26 13:41:21;;;;;;;3.73;2.07;;;;;;;;;;5040697;28;20213;-67
2021/10/26 13:43:53;;;;;;;2.90;1.70;;;;;;;;;;5039235;28;20244;-66
2021/10/26 13:46:23;;;;;;;2.73;1.67;;;;;;;;;;5044789;28;20703;-67
2021/10/26 13:48:58;;;;;;;2.33;1.80;;;;;;;;;;5021004;28;20218;-66
2021/10/26 13:51:28;;;;;;;4.23;2.10;;;;;;;;;;5041417;28;20220;-66
2021/10/26 13:54:03;;;;;;;2.33;2.10;;;;;;;;;;5044819;28;20664;-67
2021/10/26 13:56:33;;;;;;;2.20;2.00;;;;;;;;;;5022872;28;20235;-65
2021/10/26 13:59:06;;;;;;;2.07;1.60;;;;;;;;;;5044854;28;20210;-65
2021/10/26 14:02:09;;;;;;;2.00;1.80;;;;;;;;;;5040282;28;20285;-66
2021/10/26 14:04:43;;;;;;;3.00;1.83;;;;;;;;;;5031969;28;20199;-66
2021/10/26 14:07:13;;;;;;;2.53;1.77;;;;;;;;;;5040536;28;20214;-64
2021/10/26 14:09:45;;;;;;;4.03;2.10;;;;;;;;;;5044203;28;20825;-64
2021/10/26 14:12:17;;;;;;;1.20;1.10;;;;;;;;;;5042067;28;20202;-69
2021/10/26 14:14:49;;;;;;;4.93;2.07;;;;;;;;;;5046629;28;20198;-64
2021/10/26 14:17:24;;;;;;;3.70;2.17;;;;;;;;;;5037488;28;20214;-66
2021/10/26 14:19:55;;;;;;;2.20;1.80;;;;;;;;;;5035344;28;20771;-66
2021/10/26 14:22:33;;;;;;;3.27;1.60;;;;;;;;;;5065508;28;20628;-65
2021/10/26 14:25:06;;;;;;;2.93;1.90;;;;;;;;;;5068944;28;20271;-65
2021/10/26 14:27:36;;;;;;;1.80;1.47;;;;;;;;;;5049052;28;20210;-66
2021/10/26 14:30:09;;;;;;;2.27;1.70;;;;;;;;;;5060043;28;20629;-66
2021/10/26 14:32:49;;;;;;;1.83;1.63;;;;;;;;;;5064218;28;20653;-66
2021/10/26 14:35:27;;;;;;;2.03;1.40;;;;;;;;;;5061502;28;20210;-66
2021/10/26 14:38:21;;;;;;;3.10;2.03;;;;;;;;;;5065148;28;20232;-66
2021/10/26 14:55:11;;;;;;;2.00;1.50;;;;;;;;;;5061927;28;20205;-66
2021/10/26 14:57:46;;;;;;;2.50;1.70;;;;;;;;;;5047366;28;20224;-67
2021/10/26 15:00:18;;;;;;;2.83;1.80;;;;;;;;;;5060543;28;20195;-64
2021/10/26 15:02:55;;;;;;;2.93;1.53;;;;;;;;;;5053907;28;20233;-64
2021/10/26 15:05:25;;;;;;;2.57;1.60;;;;;;;;;;5057693;28;20197;-66
2021/10/26 15:07:58;;;;;;;1.90;1.50;;;;;;;;;;5061435;28;20210;-66
2021/10/26 15:10:34;;;;;;;1.50;1.33;;;;;;;;;;5035458;28;20238;-66
2021/10/26 15:13:41;;;;;;;1.67;1.50;;;;;;;;;;5054685;28;20198;-66
2021/10/26 15:16:03;;;;;;;1.83;1.60;;;;;;;;;;5049703;28;20210;-65
2021/10/26 15:18:36;;;;;;;2.60;1.40;;;;;;;;;;5043536;28;20194;-65
2021/10/26 15:21:45;;;;;;;2.13;1.80;;;;;;;;;;5045457;28;20234;-65
2021/10/26 15:35:40;;;;;;;2.70;1.47;;;;;;;;;;4988564;28;20282;-66
2021/10/26 15:38:15;;;;;;;3.80;1.63;;;;;;;;;;5002628;28;20227;-66
2021/10/26 15:40:48;;;;;;;2.83;1.80;;;;;;;;;;5007271;28;20335;-66
2021/10/26 15:43:20;;;;;;;2.30;1.73;;;;;;;;;;5005081;28;20200;-66
2021/10/26 15:45:52;;;;;;;2.90;1.47;;;;;;;;;;5001480;28;20573;-65
2021/10/26 15:48:22;;;;;;;2.50;1.50;;;;;;;;;;5004598;28;20211;-64
2021/10/26 15:50:51;;;;;;;2.53;1.87;;;;;;;;;;5005727;28;20202;-66
2021/10/26 15:53:23;;;;;;;1.90;1.40;;;;;;;;;;5003701;28;20222;-66
2021/10/26 15:55:52;;;;;;;2.63;1.57;;;;;;;;;;5002793;28;20208;-66
2021/10/26 15:58:27;;;;;;;1.90;1.70;;;;;;;;;;5004259;28;20653;-66
2021/10/26 16:00:58;;;;;;;1.73;1.47;;;;;;;;;;5004502;28;20196;-66
2021/10/26 16:03:28;;;;;;;2.63;1.60;;;;;;;;;;4989186;28;20203;-66
2021/10/26 16:06:01;;;;;;;2.27;1.47;;;;;;;;;;5008900;28;20210;-66